createdAt,value
2019-04-29T00:02:37.761Z,21.52
2019-04-29T00:05:11.105Z,18.00
2019-04-29T00:07:44.313Z,15.95
2019-04-29T00:10:21.821Z,20.95
2019-04-29T00:12:54.780Z,15.78
2019-04-29T00:16:04.651Z,17.07
2019-04-29T00:19:02.469Z,17.48
2019-04-29T00:21:35.645Z,15.45
2019-04-29T00:24:08.697Z,18.77
2019-04-29T00:26:41.713Z,17.50
2019-04-29T00:29:15.398Z,15.78
2019-04-29T00:31:48.510Z,15.15
2019-04-29T00:34:21.441Z,14.90
2019-04-29T00:37:07.766Z,15.88
2019-04-29T00:40:17.640Z,14.80
2019-04-29T00:43:00.620Z,8.88
2019-04-29T00:45:33.703Z,12.80
2019-04-29T00:48:06.705Z,14.20
2019-04-29T00:50:39.678Z,14.38
2019-04-29T00:53:12.858Z,10.98
2019-04-29T00:55:55.011Z,9.85
2019-04-29T00:58:28.085Z,11.88
2019-04-29T01:01:01.100Z,10.58
2019-04-29T01:03:34.267Z,14.00
2019-04-29T01:06:07.232Z,13.95
2019-04-29T01:08:40.369Z,8.85
2019-04-29T01:11:13.203Z,7.00
2019-04-29T01:13:46.026Z,10.78
2019-04-29T01:16:20.374Z,11.70
2019-04-29T01:18:53.230Z,9.60
2019-04-29T01:21:27.062Z,13.62
2019-04-29T01:23:59.865Z,11.63
2019-04-29T01:27:06.545Z,9.38
2019-04-29T01:29:39.618Z,10.25
2019-04-29T01:32:12.656Z,12.68
2019-04-29T01:34:53.781Z,11.60
2019-04-29T01:37:40.768Z,12.03
2019-04-29T01:40:51.361Z,12.82
2019-04-29T01:43:25.997Z,7.97
2019-04-29T01:45:58.893Z,9.10
2019-04-29T01:48:31.770Z,10.10
2019-04-29T01:51:04.685Z,10.68
2019-04-29T01:53:37.503Z,9.35
2019-04-29T01:56:10.365Z,7.37
2019-04-29T01:58:43.257Z,6.90
2019-04-29T02:01:16.259Z,9.00
2019-04-29T02:03:49.171Z,7.67
2019-04-29T02:06:22.081Z,8.45
2019-04-29T02:08:55.991Z,9.75
2019-04-29T02:11:29.047Z,7.10
2019-04-29T02:14:01.932Z,7.87
2019-04-29T02:16:34.774Z,9.25
2019-04-29T02:19:07.810Z,9.38
2019-04-29T02:21:42.374Z,8.43
2019-04-29T02:24:17.743Z,8.20
2019-04-29T02:26:51.603Z,8.83
2019-04-29T02:29:24.522Z,9.60
2019-04-29T02:31:57.461Z,8.80
2019-04-29T02:34:30.495Z,10.00
2019-04-29T02:37:05.126Z,8.65
2019-04-29T02:39:43.407Z,9.95
2019-04-29T02:42:41.330Z,11.85
2019-04-29T02:45:20.132Z,10.82
2019-04-29T02:47:53.020Z,11.25
2019-04-29T02:50:26.044Z,7.53
2019-04-29T02:52:59.044Z,9.70
2019-04-29T02:55:36.650Z,10.58
2019-04-29T02:58:28.435Z,11.53
2019-04-29T03:01:09.002Z,12.40
2019-04-29T03:03:59.551Z,11.12
2019-04-29T03:06:32.400Z,13.53
2019-04-29T03:09:07.005Z,11.38
2019-04-29T03:11:40.030Z,15.88
2019-04-29T03:14:12.854Z,12.35
2019-04-29T03:16:45.988Z,13.03
2019-04-29T03:19:24.091Z,12.63
2019-04-29T03:21:58.698Z,15.83
2019-04-29T03:24:31.744Z,16.82
2019-04-29T03:27:04.756Z,15.03
2019-04-29T03:29:37.800Z,15.63
2019-04-29T03:32:10.707Z,13.72
2019-04-29T03:34:43.869Z,15.15
2019-04-29T03:37:16.774Z,16.27
2019-04-29T03:39:49.761Z,19.62
2019-04-29T03:42:22.677Z,21.05
2019-04-29T03:44:55.563Z,11.35
2019-04-29T03:47:28.577Z,21.87
2019-04-29T03:50:01.529Z,20.20
2019-04-29T03:52:34.567Z,17.80
2019-04-29T03:55:07.769Z,21.82
2019-04-29T03:57:40.642Z,19.60
2019-04-29T04:00:15.317Z,24.60
2019-04-29T04:02:55.839Z,26.95
2019-04-29T04:05:47.544Z,42.27
2019-04-29T04:08:39.322Z,37.75
2019-04-29T04:11:12.418Z,68.07
2019-04-29T04:13:45.463Z,36.85
2019-04-29T04:16:36.054Z,68.07
2019-04-29T04:19:10.123Z,68.87
2019-04-29T04:21:42.968Z,25.77
2019-04-29T04:24:15.809Z,24.20
2019-04-29T04:26:48.741Z,25.37
2019-04-29T04:29:21.982Z,24.05
2019-04-29T04:31:54.842Z,27.42
2019-04-29T04:34:27.688Z,25.55
2019-04-29T04:37:00.647Z,35.35
2019-04-29T04:39:35.319Z,31.10
2019-04-29T04:42:08.340Z,28.05
2019-04-29T04:44:50.390Z,24.87
2019-04-29T04:47:23.393Z,32.13
2019-04-29T04:49:56.352Z,37.40
2019-04-29T04:52:30.782Z,35.95
2019-04-29T04:55:03.819Z,33.50
2019-04-29T04:57:37.614Z,37.00
2019-04-29T05:00:19.783Z,27.75
2019-04-29T05:02:51.064Z,38.60
2019-04-29T05:05:24.079Z,35.75
2019-04-29T05:07:56.958Z,38.23
2019-04-29T05:10:29.841Z,29.75
2019-04-29T05:13:03.031Z,36.88
2019-04-29T05:15:36.152Z,27.65
2019-04-29T05:18:10.082Z,35.83
2019-04-29T05:20:44.152Z,35.20
2019-04-29T05:23:17.142Z,39.10
2019-04-29T05:25:50.052Z,25.12
2019-04-29T05:28:23.066Z,31.68
2019-04-29T05:30:55.903Z,32.75
2019-04-29T05:33:29.052Z,32.67
2019-04-29T05:36:16.299Z,36.98
2019-04-29T05:39:07.943Z,30.70
2019-04-29T05:41:40.877Z,34.95
2019-04-29T05:44:26.324Z,37.65
2019-04-29T05:47:06.346Z,32.38
2019-04-29T05:49:46.771Z,36.35
2019-04-29T05:52:30.327Z,32.88
2019-04-29T05:55:04.697Z,28.47
2019-04-29T05:57:37.596Z,37.00
2019-04-29T06:00:10.875Z,31.17
2019-04-29T06:02:45.231Z,29.23
2019-04-29T06:05:18.193Z,33.67
2019-04-29T06:07:51.719Z,36.70
2019-04-29T06:10:24.873Z,44.27
2019-04-29T06:12:57.881Z,36.70
2019-04-29T06:15:33.540Z,35.55
2019-04-29T06:18:06.681Z,35.80
2019-04-29T06:20:39.749Z,47.98
2019-04-29T06:23:12.758Z,36.25
2019-04-29T06:25:46.095Z,57.65
2019-04-29T06:28:21.792Z,37.13
2019-04-29T06:30:54.134Z,31.30
2019-04-29T06:33:28.978Z,35.80
2019-04-29T06:36:02.257Z,34.08
2019-04-29T06:38:35.313Z,38.63
2019-04-29T06:41:09.753Z,42.93
2019-04-29T06:43:44.780Z,48.10
2019-04-29T06:46:17.770Z,34.53
2019-04-29T06:48:50.787Z,32.03
2019-04-29T06:51:23.694Z,46.53
2019-04-29T06:53:57.777Z,35.05
2019-04-29T06:56:30.778Z,45.03
2019-04-29T06:59:07.510Z,41.55
2019-04-29T07:01:38.765Z,42.80
2019-04-29T07:04:11.724Z,38.30
2019-04-29T07:06:56.675Z,37.83
2019-04-29T07:09:19.266Z,35.63
2019-04-29T07:11:52.168Z,45.20
2019-04-29T07:14:28.310Z,42.03
2019-04-29T07:17:00.836Z,42.65
2019-04-29T07:19:34.365Z,41.75
2019-04-29T07:22:07.268Z,35.50
2019-04-29T07:24:40.165Z,41.08
2019-04-29T07:27:13.061Z,35.30
2019-04-29T07:29:45.945Z,39.45
2019-04-29T07:32:18.760Z,48.52
2019-04-29T07:34:51.704Z,34.78
2019-04-29T07:37:24.664Z,31.25
2019-04-29T07:39:57.505Z,36.15
2019-04-29T07:42:33.233Z,41.63
2019-04-29T07:45:43.388Z,37.13
2019-04-29T07:48:06.472Z,45.40
2019-04-29T07:50:39.993Z,35.38
2019-04-29T07:53:12.858Z,41.28
2019-04-29T07:55:45.918Z,35.40
2019-04-29T07:58:23.080Z,35.43
2019-04-29T08:01:01.028Z,36.95
2019-04-29T08:03:34.018Z,36.98
2019-04-29T08:06:07.284Z,40.92
2019-04-29T08:08:53.913Z,46.50
2019-04-29T08:11:15.184Z,43.30
2019-04-29T08:13:51.132Z,38.70
2019-04-29T08:16:24.097Z,33.50
2019-04-29T08:18:57.076Z,40.75
2019-04-29T08:21:30.013Z,42.15
2019-04-29T08:24:02.961Z,37.88
2019-04-29T08:26:38.256Z,38.25
2019-04-29T08:29:10.658Z,39.23
2019-04-29T08:31:43.616Z,44.15
2019-04-29T08:34:18.686Z,45.28
2019-04-29T08:36:51.167Z,34.65
2019-04-29T08:39:25.152Z,33.18
2019-04-29T08:42:03.725Z,39.18
2019-04-29T08:44:54.721Z,38.38
2019-04-29T08:47:31.611Z,41.77
2019-04-29T08:50:05.289Z,39.30
2019-04-29T08:52:38.694Z,40.30
2019-04-29T08:55:11.823Z,43.85
2019-04-29T08:57:44.879Z,37.88
2019-04-29T09:00:19.445Z,38.40
2019-04-29T09:02:52.644Z,44.83
2019-04-29T09:05:28.351Z,37.03
2019-04-29T09:08:01.329Z,39.63
2019-04-29T09:10:36.815Z,43.10
2019-04-29T09:13:09.037Z,44.67
2019-04-29T09:15:47.512Z,36.25
2019-04-29T09:18:20.516Z,46.23
2019-04-29T09:20:54.616Z,38.28
2019-04-29T09:23:30.066Z,33.33
2019-04-29T09:26:20.275Z,28.23
2019-04-29T09:28:53.208Z,40.78
2019-04-29T09:31:26.285Z,34.20
2019-04-29T09:34:06.319Z,32.73
2019-04-29T09:36:34.052Z,34.92
2019-04-29T09:39:07.591Z,42.55
2019-04-29T09:41:49.375Z,41.45
2019-04-29T09:44:44.528Z,39.98
2019-04-29T09:47:14.881Z,31.87
2019-04-29T09:49:47.836Z,32.65
2019-04-29T09:52:20.791Z,34.75
2019-04-29T09:54:53.872Z,30.25
2019-04-29T09:57:26.907Z,26.00
2019-04-29T10:00:11.674Z,29.77
2019-04-29T10:02:49.791Z,38.15
2019-04-29T10:05:50.611Z,29.65
2019-04-29T10:08:23.552Z,36.38
2019-04-29T10:10:57.484Z,28.57
2019-04-29T10:13:30.372Z,30.43
2019-04-29T10:16:31.696Z,27.52
2019-04-29T10:19:27.583Z,28.55
2019-04-29T10:22:00.652Z,27.70
2019-04-29T10:24:33.654Z,29.35
2019-04-29T10:27:07.887Z,26.12
2019-04-29T10:29:42.450Z,22.82
2019-04-29T10:32:15.354Z,26.12
2019-04-29T10:34:48.288Z,24.57
2019-04-29T10:37:23.221Z,25.35
2019-04-29T10:40:11.093Z,27.85
2019-04-29T10:42:47.353Z,31.05
2019-04-29T10:45:34.471Z,25.90
2019-04-29T10:48:29.789Z,28.20
2019-04-29T10:51:04.082Z,26.40
2019-04-29T10:53:37.106Z,27.45
2019-04-29T10:56:10.151Z,26.65
2019-04-29T10:58:43.339Z,30.52
2019-04-29T11:02:26.136Z,23.07
2019-04-29T11:05:11.893Z,20.40
2019-04-29T11:07:44.409Z,22.13
2019-04-29T11:10:25.918Z,20.30
2019-04-29T11:12:59.390Z,22.52
2019-04-29T11:15:35.522Z,20.25
2019-04-29T11:18:08.673Z,24.52
2019-04-29T11:20:44.538Z,24.05
2019-04-29T11:23:29.138Z,26.10
2019-04-29T11:26:20.582Z,28.80
2019-04-29T11:28:54.871Z,22.15
2019-04-29T11:31:27.863Z,21.10
2019-04-29T11:34:33.407Z,23.47
2019-04-29T11:37:08.322Z,23.15
2019-04-29T11:39:41.234Z,20.57
2019-04-29T11:42:14.934Z,23.73
2019-04-29T11:44:48.045Z,21.45
2019-04-29T11:47:24.895Z,28.07
2019-04-29T11:50:07.593Z,26.07
2019-04-29T11:52:40.807Z,27.90
2019-04-29T11:55:18.315Z,33.65
2019-04-29T11:57:53.488Z,28.15
2019-04-29T12:00:52.088Z,18.77
2019-04-29T12:03:29.061Z,20.50
2019-04-29T12:06:03.701Z,29.95
2019-04-29T12:08:38.398Z,18.92
2019-04-29T12:11:13.443Z,21.68
2019-04-29T12:14:05.157Z,26.97
2019-04-29T12:16:41.928Z,23.00
2019-04-29T12:19:21.359Z,24.18
2019-04-29T12:21:52.475Z,25.70
2019-04-29T12:24:25.291Z,28.32
2019-04-29T12:26:58.274Z,24.18
2019-04-29T12:29:31.161Z,23.00
2019-04-29T12:32:27.603Z,25.43
2019-04-29T12:35:10.637Z,23.98
2019-04-29T12:38:11.025Z,27.65
2019-04-29T12:40:59.555Z,18.50
2019-04-29T12:43:59.160Z,21.48
2019-04-29T12:46:42.099Z,21.85
2019-04-29T12:49:15.452Z,18.80
2019-04-29T12:51:48.727Z,23.92
2019-04-29T12:54:21.906Z,24.80
2019-04-29T12:56:55.897Z,23.52
2019-04-29T12:59:30.486Z,22.27
2019-04-29T13:02:24.450Z,16.97
2019-04-29T13:05:19.393Z,18.62
2019-04-29T13:08:04.201Z,17.82
2019-04-29T13:10:49.113Z,13.50
2019-04-29T13:13:22.197Z,14.35
2019-04-29T13:16:12.690Z,16.10
2019-04-29T13:19:11.505Z,14.68
2019-04-29T13:21:39.699Z,16.35
2019-04-29T13:24:22.443Z,19.07
2019-04-29T13:26:47.369Z,21.73
2019-04-29T13:29:31.858Z,20.15
2019-04-29T13:31:54.871Z,13.00
2019-04-29T13:34:35.429Z,23.07
2019-04-29T13:37:18.429Z,17.15
2019-04-29T13:39:42.942Z,16.87
2019-04-29T13:42:16.117Z,17.42
2019-04-29T13:45:05.131Z,13.35
2019-04-29T13:47:40.994Z,21.48
2019-04-29T13:50:38.013Z,15.30
2019-04-29T13:52:57.196Z,13.50
2019-04-29T13:55:47.865Z,15.25
2019-04-29T13:58:05.978Z,19.27
2019-04-29T14:00:49.283Z,14.35
2019-04-29T14:03:27.434Z,19.55
2019-04-29T14:06:04.170Z,12.58
2019-04-29T14:08:35.197Z,20.17
2019-04-29T14:11:08.152Z,17.15
2019-04-29T14:13:43.261Z,15.75
2019-04-29T14:16:19.123Z,16.82
2019-04-29T14:18:50.735Z,14.58
2019-04-29T14:21:25.827Z,16.23
2019-04-29T14:23:58.407Z,16.42
2019-04-29T14:26:31.280Z,14.45
2019-04-29T14:29:04.294Z,21.00
2019-04-29T14:31:37.167Z,20.30
2019-04-29T14:34:34.858Z,14.18
2019-04-29T14:37:25.342Z,15.18
2019-04-29T14:39:41.005Z,13.10
2019-04-29T14:42:32.808Z,25.43
2019-04-29T14:45:23.793Z,16.75
2019-04-29T14:48:17.755Z,16.02
2019-04-29T14:50:54.237Z,16.12
2019-04-29T14:53:26.312Z,13.90
2019-04-29T14:55:59.302Z,18.85
2019-04-29T14:58:32.522Z,18.10
2019-04-29T15:01:31.177Z,19.00
2019-04-29T15:04:18.000Z,27.82
2019-04-29T15:06:42.328Z,13.62
2019-04-29T15:09:17.689Z,16.82
2019-04-29T15:12:04.404Z,14.20
2019-04-29T15:14:47.611Z,17.98
2019-04-29T15:17:44.720Z,16.52
2019-04-29T15:20:30.381Z,21.82
2019-04-29T15:23:00.511Z,14.50
2019-04-29T15:25:33.413Z,15.88
2019-04-29T15:28:06.386Z,25.30
2019-04-29T15:30:39.395Z,17.00
2019-04-29T15:33:12.341Z,15.23
2019-04-29T15:35:45.818Z,16.85
2019-04-29T15:38:18.762Z,16.02
2019-04-29T15:40:51.592Z,18.37
2019-04-29T15:43:46.130Z,17.87
2019-04-29T15:45:59.030Z,16.77
2019-04-29T15:48:31.946Z,18.52
2019-04-29T15:51:09.305Z,18.77
2019-04-29T15:53:39.637Z,19.92
2019-04-29T15:56:27.573Z,29.37
2019-04-29T15:58:47.452Z,20.92
2019-04-29T16:01:27.118Z,17.48
2019-04-29T16:03:57.313Z,21.05
2019-04-29T16:07:07.745Z,13.03
2019-04-29T16:10:20.448Z,17.98
2019-04-29T16:12:53.051Z,20.80
2019-04-29T16:15:25.864Z,18.90
2019-04-29T16:17:58.793Z,21.27
2019-04-29T16:20:31.754Z,14.65
2019-04-29T16:23:04.674Z,19.87
2019-04-29T16:25:40.699Z,13.13
2019-04-29T16:28:12.094Z,16.57
2019-04-29T16:30:46.198Z,15.63
2019-04-29T16:33:19.064Z,19.30
2019-04-29T16:35:52.007Z,19.52
2019-04-29T16:38:25.090Z,18.80
2019-04-29T16:41:06.333Z,18.25
2019-04-29T16:43:41.695Z,14.80
2019-04-29T16:46:23.306Z,15.80
2019-04-29T16:49:00.933Z,20.57
2019-04-29T16:51:35.943Z,21.15
2019-04-29T16:54:20.526Z,18.60
2019-04-29T16:56:53.650Z,12.28
2019-04-29T16:59:28.348Z,19.42
2019-04-29T17:02:04.485Z,16.95
2019-04-29T17:04:39.378Z,21.10
2019-04-29T17:07:24.315Z,15.85
2019-04-29T17:10:19.211Z,16.15
2019-04-29T17:12:52.823Z,19.55
2019-04-29T17:15:31.119Z,16.97
2019-04-29T17:18:05.906Z,19.87
2019-04-29T17:20:40.677Z,23.65
2019-04-29T17:23:13.856Z,16.70
2019-04-29T17:25:52.289Z,18.73
2019-04-29T17:28:31.637Z,15.38
2019-04-29T17:31:23.858Z,14.60
2019-04-29T17:34:05.207Z,12.68
2019-04-29T17:36:39.773Z,22.73
2019-04-29T17:39:13.062Z,17.48
2019-04-29T17:41:48.206Z,14.93
2019-04-29T17:44:40.096Z,21.75
2019-04-29T17:47:37.610Z,15.00
2019-04-29T17:50:30.764Z,18.20
2019-04-29T17:53:05.170Z,12.93
2019-04-29T17:55:45.352Z,17.25
2019-04-29T17:58:25.874Z,12.95
2019-04-29T18:01:17.826Z,25.65
2019-04-29T18:04:11.725Z,19.80
2019-04-29T18:06:51.651Z,16.87
2019-04-29T18:09:47.538Z,20.15
2019-04-29T18:12:24.734Z,20.30
2019-04-29T18:14:57.632Z,21.68
2019-04-29T18:17:36.099Z,25.65
2019-04-29T18:20:33.082Z,22.75
2019-04-29T18:23:21.743Z,22.50
2019-04-29T18:26:16.637Z,23.42
2019-04-29T18:28:49.989Z,26.35
2019-04-29T18:31:26.485Z,28.32
2019-04-29T18:34:00.206Z,24.67
2019-04-29T18:36:35.184Z,29.35
2019-04-29T18:39:11.292Z,16.02
2019-04-29T18:41:44.802Z,24.87
2019-04-29T18:44:19.554Z,24.05
2019-04-29T18:46:53.878Z,21.62
2019-04-29T18:49:28.124Z,16.48
2019-04-29T18:52:02.284Z,20.27
2019-04-29T18:54:36.680Z,24.77
2019-04-29T18:57:09.809Z,30.50
2019-04-29T18:59:42.767Z,42.05
2019-04-29T19:02:15.775Z,32.08
2019-04-29T19:04:56.436Z,31.40
2019-04-29T19:07:31.932Z,23.57
2019-04-29T19:10:09.043Z,28.62
2019-04-29T19:12:39.410Z,29.87
2019-04-29T19:15:12.977Z,24.27
2019-04-29T19:17:58.293Z,27.80
2019-04-29T19:20:20.811Z,21.40
2019-04-29T19:23:05.423Z,16.93
2019-04-29T19:25:28.421Z,20.08
2019-04-29T19:28:11.777Z,26.57
2019-04-29T19:30:37.078Z,19.70
2019-04-29T19:33:12.214Z,19.90
2019-04-29T19:35:45.288Z,32.20
2019-04-29T19:38:18.271Z,23.75
2019-04-29T19:40:54.796Z,20.15
2019-04-29T19:43:28.572Z,17.00
2019-04-29T19:46:01.910Z,22.42
2019-04-29T19:48:36.672Z,29.82
2019-04-29T19:51:18.027Z,37.55
2019-04-29T19:53:49.443Z,25.43
2019-04-29T19:56:24.375Z,17.27
2019-04-29T19:58:57.996Z,20.10
2019-04-29T20:01:32.287Z,21.68
2019-04-29T20:04:35.568Z,20.05
2019-04-29T20:07:10.495Z,21.02
2019-04-29T20:09:47.460Z,18.73
2019-04-29T20:12:19.540Z,23.22
2019-04-29T20:14:58.678Z,18.65
2019-04-29T20:17:59.236Z,21.52
2019-04-29T20:20:40.609Z,18.77
2019-04-29T20:23:24.750Z,20.05
2019-04-29T20:25:52.925Z,21.05
2019-04-29T20:28:26.424Z,16.87
2019-04-29T20:31:15.296Z,16.77
2019-04-29T20:33:35.909Z,19.02
2019-04-29T20:36:10.911Z,18.37
2019-04-29T20:38:45.481Z,19.80
2019-04-29T20:41:36.830Z,14.18
2019-04-29T20:43:56.258Z,13.62
2019-04-29T20:46:44.563Z,16.32
2019-04-29T20:49:06.338Z,14.68
2019-04-29T20:51:49.673Z,15.18
2019-04-29T20:54:20.592Z,17.77
2019-04-29T20:57:02.787Z,17.20
2019-04-29T20:59:35.875Z,17.05
2019-04-29T21:02:12.552Z,9.85
2019-04-29T21:04:47.315Z,14.58
2019-04-29T21:07:23.946Z,18.90
2019-04-29T21:09:55.911Z,15.25
2019-04-29T21:12:50.609Z,20.68
2019-04-29T21:15:36.129Z,17.95
2019-04-29T21:18:10.284Z,14.90
2019-04-29T21:20:45.076Z,12.10
2019-04-29T21:23:18.980Z,17.85
2019-04-29T21:25:52.220Z,14.70
2019-04-29T21:28:25.125Z,12.60
2019-04-29T21:30:58.083Z,14.20
2019-04-29T21:33:31.326Z,13.70
2019-04-29T21:36:15.485Z,16.97
2019-04-29T21:39:01.855Z,16.85
2019-04-29T21:41:41.635Z,20.30
2019-04-29T21:44:14.439Z,12.43
2019-04-29T21:46:47.641Z,13.85
2019-04-29T21:49:20.519Z,16.67
2019-04-29T21:51:55.391Z,14.70
2019-04-29T21:54:28.025Z,18.90
2019-04-29T21:57:01.163Z,23.32
2019-04-29T21:59:35.660Z,19.40
2019-04-29T22:02:11.397Z,13.32
2019-04-29T22:04:44.979Z,13.68
2019-04-29T22:07:19.504Z,15.35
2019-04-29T22:09:52.462Z,23.62
2019-04-29T22:12:25.366Z,25.80
2019-04-29T22:14:59.498Z,22.67
2019-04-29T22:17:33.843Z,22.10
2019-04-29T22:20:10.978Z,18.95
2019-04-29T22:22:45.267Z,15.90
2019-04-29T22:25:18.763Z,20.32
2019-04-29T22:27:51.780Z,17.82
2019-04-29T22:30:26.466Z,19.98
2019-04-29T22:32:59.969Z,21.40
2019-04-29T22:35:37.258Z,19.67
2019-04-29T22:38:12.638Z,17.50
2019-04-29T22:40:45.036Z,17.35
2019-04-29T22:43:25.328Z,20.35
2019-04-29T22:45:58.391Z,19.23
2019-04-29T22:48:31.336Z,14.50
2019-04-29T22:51:05.728Z,19.65
2019-04-29T22:53:40.057Z,20.72
2019-04-29T22:56:15.804Z,14.07
2019-04-29T22:58:48.270Z,13.13
2019-04-29T23:01:21.373Z,36.63
2019-04-29T23:03:55.372Z,17.62
2019-04-29T23:06:28.549Z,15.18
2019-04-29T23:09:01.459Z,16.67
2019-04-29T23:11:39.351Z,16.12
2019-04-29T23:14:10.559Z,15.72
2019-04-29T23:16:45.463Z,15.20
2019-04-29T23:19:19.557Z,13.03
2019-04-29T23:22:10.621Z,15.50
2019-04-29T23:24:55.759Z,18.42
2019-04-29T23:27:28.927Z,21.52
2019-04-29T23:30:01.782Z,17.67
2019-04-29T23:32:35.240Z,12.68
2019-04-29T23:35:10.017Z,13.15
2019-04-29T23:37:42.964Z,15.38
2019-04-29T23:40:15.905Z,18.85
2019-04-29T23:42:49.291Z,17.07
2019-04-29T23:45:22.442Z,15.90
2019-04-29T23:47:55.609Z,16.20
2019-04-29T23:50:28.452Z,14.18
2019-04-29T23:53:01.340Z,18.70
2019-04-29T23:55:35.611Z,13.58
2019-04-29T23:58:17.067Z,10.53
